createdAt,value
2018-03-16T00:00:25.537Z,0.69
2018-03-16T00:01:51.559Z,0.66
2018-03-16T00:03:18.752Z,0.64
2018-03-16T00:04:47.060Z,0.63
2018-03-16T00:06:13.008Z,0.66
2018-03-16T00:07:40.158Z,0.66
2018-03-16T00:09:08.317Z,0.69
2018-03-16T00:10:35.396Z,0.66
2018-03-16T00:12:01.449Z,0.65
2018-03-16T00:13:28.664Z,0.64
2018-03-16T00:14:58.857Z,0.63
2018-03-16T00:16:24.011Z,0.63
2018-03-16T00:17:50.183Z,0.63
2018-03-16T00:19:17.352Z,0.63
2018-03-16T00:20:44.427Z,0.60
2018-03-16T00:22:11.620Z,0.59
2018-03-16T00:23:38.704Z,0.55
2018-03-16T00:25:05.687Z,0.56
2018-03-16T00:26:33.862Z,0.56
2018-03-16T00:28:00.057Z,0.57
2018-03-16T00:29:27.266Z,0.57
2018-03-16T00:30:54.459Z,0.57
2018-03-16T00:32:22.616Z,0.56
2018-03-16T00:33:49.543Z,0.57
2018-03-16T00:35:15.681Z,0.58
2018-03-16T00:36:43.910Z,0.57
2018-03-16T00:38:10.906Z,0.55
2018-03-16T00:39:38.018Z,0.50
2018-03-16T00:41:05.223Z,0.49
2018-03-16T00:42:31.281Z,0.51
2018-03-16T00:43:58.568Z,0.50
2018-03-16T00:45:25.602Z,0.52
2018-03-16T00:46:52.777Z,0.51
2018-03-16T00:48:20.073Z,0.48
2018-03-16T00:49:47.168Z,0.44
2018-03-16T00:51:14.261Z,0.45
2018-03-16T00:52:41.396Z,0.46
2018-03-16T00:54:09.528Z,0.47
2018-03-16T00:55:36.524Z,0.50
2018-03-16T00:57:02.735Z,0.52
2018-03-16T00:58:29.841Z,0.53
2018-03-16T00:59:57.094Z,0.52
2018-03-16T01:01:25.376Z,0.51
2018-03-16T01:02:51.661Z,0.49
2018-03-16T01:04:19.733Z,0.50
2018-03-16T01:05:45.752Z,0.51
2018-03-16T01:07:13.941Z,0.49
2018-03-16T01:08:40.987Z,0.49
2018-03-16T01:10:08.046Z,0.47
2018-03-16T01:11:34.305Z,0.47
2018-03-16T01:13:01.343Z,0.50
2018-03-16T01:14:29.453Z,0.43
2018-03-16T01:15:56.503Z,0.45
2018-03-16T01:17:22.630Z,0.46
2018-03-16T01:18:49.706Z,0.46
2018-03-16T01:20:17.857Z,0.48
2018-03-16T01:21:43.826Z,0.49
2018-03-16T01:23:11.966Z,0.50
2018-03-16T01:24:38.025Z,0.51
2018-03-16T01:26:06.251Z,0.49
2018-03-16T01:27:32.379Z,0.48
2018-03-16T01:29:00.604Z,0.49
2018-03-16T01:30:27.602Z,0.49
2018-03-16T01:31:54.737Z,0.48
2018-03-16T01:33:21.812Z,0.48
2018-03-16T01:34:48.013Z,0.48
2018-03-16T01:36:16.050Z,0.49
2018-03-16T01:37:41.885Z,0.49
2018-03-16T01:39:08.892Z,0.47
2018-03-16T01:40:36.915Z,0.49
2018-03-16T01:42:04.110Z,0.48
2018-03-16T01:43:31.056Z,0.47
2018-03-16T01:44:58.216Z,0.47
2018-03-16T01:46:24.410Z,0.48
2018-03-16T01:47:52.517Z,0.48
2018-03-16T01:49:18.602Z,0.50
2018-03-16T01:50:45.796Z,0.47
2018-03-16T01:52:13.859Z,0.45
2018-03-16T01:53:40.862Z,0.43
2018-03-16T01:55:07.978Z,0.44
2018-03-16T01:56:34.088Z,0.46
2018-03-16T01:58:02.165Z,0.45
2018-03-16T01:59:29.285Z,0.44
2018-03-16T02:01:01.497Z,0.44
2018-03-16T02:02:22.614Z,0.44
2018-03-16T02:03:50.636Z,0.43
2018-03-16T02:05:17.680Z,0.44
2018-03-16T02:06:44.818Z,0.45
2018-03-16T02:08:11.968Z,0.43
2018-03-16T02:09:39.120Z,0.44
2018-03-16T02:11:06.112Z,0.47
2018-03-16T02:12:33.194Z,0.45
2018-03-16T02:13:59.474Z,0.43
2018-03-16T02:15:27.426Z,0.40
2018-03-16T02:16:54.474Z,0.39
2018-03-16T02:18:20.560Z,0.41
2018-03-16T02:19:48.493Z,0.44
2018-03-16T02:21:14.668Z,0.47
2018-03-16T02:22:41.662Z,0.51
2018-03-16T02:24:09.689Z,0.47
2018-03-16T02:25:36.765Z,0.47
2018-03-16T02:27:03.791Z,0.43
2018-03-16T02:28:29.867Z,0.45
2018-03-16T02:29:57.989Z,0.48
2018-03-16T02:31:25.241Z,0.48
2018-03-16T02:32:52.292Z,0.45
2018-03-16T02:34:18.508Z,0.45
2018-03-16T02:35:46.709Z,0.46
2018-03-16T02:37:12.854Z,0.44
2018-03-16T02:38:41.007Z,0.46
2018-03-16T02:40:08.109Z,0.43
2018-03-16T02:41:34.227Z,0.43
2018-03-16T02:43:01.375Z,0.44
2018-03-16T02:44:29.500Z,0.44
2018-03-16T02:45:55.439Z,0.43
2018-03-16T02:47:23.617Z,0.43
2018-03-16T02:48:49.660Z,0.44
2018-03-16T02:50:16.886Z,0.43
2018-03-16T02:51:44.090Z,0.41
2018-03-16T02:53:11.050Z,0.44
2018-03-16T02:54:39.168Z,0.36
2018-03-16T02:56:06.132Z,0.39
2018-03-16T02:57:32.112Z,0.34
2018-03-16T02:58:59.265Z,0.35
2018-03-16T03:00:27.351Z,0.35
2018-03-16T03:01:54.465Z,0.34
2018-03-16T03:03:21.661Z,0.35
2018-03-16T03:04:47.649Z,0.37
2018-03-16T03:06:14.962Z,0.36
2018-03-16T03:07:43.072Z,0.34
2018-03-16T03:09:10.079Z,0.35
2018-03-16T03:10:36.208Z,0.35
2018-03-16T03:12:04.220Z,0.37
2018-03-16T03:13:31.164Z,0.34
2018-03-16T03:14:58.207Z,0.37
2018-03-16T03:16:24.400Z,0.35
2018-03-16T03:17:52.469Z,0.32
2018-03-16T03:19:19.600Z,0.31
2018-03-16T03:20:46.678Z,0.30
2018-03-16T03:22:13.680Z,0.31
2018-03-16T03:23:40.882Z,0.32
2018-03-16T03:25:06.743Z,0.31
2018-03-16T03:26:34.014Z,0.32
2018-03-16T03:28:01.200Z,0.35
2018-03-16T03:29:29.239Z,0.37
2018-03-16T03:30:55.380Z,0.39
2018-03-16T03:32:23.670Z,0.37
2018-03-16T03:33:50.638Z,0.35
2018-03-16T03:35:17.851Z,0.35
2018-03-16T03:36:44.985Z,0.36
2018-03-16T03:38:11.891Z,0.37
2018-03-16T03:39:39.009Z,0.39
2018-03-16T03:41:05.895Z,0.38
2018-03-16T03:42:31.859Z,0.41
2018-03-16T03:43:58.996Z,0.41
2018-03-16T03:45:26.227Z,0.36
2018-03-16T03:46:53.226Z,0.39
2018-03-16T03:48:21.417Z,0.40
2018-03-16T03:49:48.679Z,0.42
2018-03-16T03:51:15.915Z,0.43
2018-03-16T03:52:41.923Z,0.41
2018-03-16T03:54:10.174Z,0.40
2018-03-16T03:55:37.150Z,0.40
2018-03-16T03:57:04.161Z,0.40
2018-03-16T03:58:30.217Z,0.43
2018-03-16T03:59:57.431Z,0.47
2018-03-16T04:01:25.449Z,0.49
2018-03-16T04:02:52.497Z,0.51
2018-03-16T04:04:18.420Z,0.49
2018-03-16T04:05:45.593Z,0.47
2018-03-16T04:07:12.512Z,0.43
2018-03-16T04:08:40.654Z,0.41
2018-03-16T04:10:07.825Z,0.43
2018-03-16T04:11:34.801Z,0.43
2018-03-16T04:13:01.122Z,0.45
2018-03-16T04:14:28.298Z,0.46
2018-03-16T04:15:55.387Z,0.44
2018-03-16T04:17:23.555Z,0.45
2018-03-16T04:18:50.693Z,0.41
2018-03-16T04:20:16.781Z,0.38
2018-03-16T04:21:44.795Z,0.36
2018-03-16T04:23:11.946Z,0.38
2018-03-16T04:24:38.051Z,0.40
2018-03-16T04:26:06.236Z,0.41
2018-03-16T04:27:32.320Z,0.42
2018-03-16T04:29:00.461Z,0.40
2018-03-16T04:30:27.576Z,0.40
2018-03-16T04:31:53.724Z,0.40
2018-03-16T04:33:20.869Z,0.41
2018-03-16T04:34:48.098Z,0.40
2018-03-16T04:36:16.134Z,0.40
2018-03-16T04:37:42.256Z,0.40
2018-03-16T04:39:10.450Z,0.41
2018-03-16T04:40:36.455Z,0.40
2018-03-16T04:42:04.585Z,0.40
2018-03-16T04:43:30.809Z,0.39
2018-03-16T04:44:57.923Z,0.39
2018-03-16T04:46:25.155Z,0.37
2018-03-16T04:47:53.215Z,0.35
2018-03-16T04:49:19.384Z,0.37
2018-03-16T04:50:46.730Z,0.37
2018-03-16T04:52:13.800Z,0.37
2018-03-16T04:53:41.814Z,0.36
2018-03-16T04:55:08.944Z,0.37
2018-03-16T04:56:35.928Z,0.36
2018-03-16T04:58:01.996Z,0.36
2018-03-16T04:59:29.177Z,0.37
2018-03-16T05:00:56.362Z,0.35
2018-03-16T05:02:24.366Z,0.38
2018-03-16T05:03:51.464Z,0.38
2018-03-16T05:05:18.621Z,0.39
2018-03-16T05:06:44.682Z,0.39
2018-03-16T05:08:12.691Z,0.39
2018-03-16T05:09:44.859Z,0.38
2018-03-16T05:11:05.670Z,0.41
2018-03-16T05:12:33.942Z,0.39
2018-03-16T05:14:00.916Z,0.38
2018-03-16T05:15:28.194Z,0.37
2018-03-16T05:16:54.293Z,0.36
2018-03-16T05:18:22.538Z,0.36
2018-03-16T05:19:49.385Z,0.37
2018-03-16T05:21:16.434Z,0.39
2018-03-16T05:22:43.451Z,0.39
2018-03-16T05:24:10.512Z,0.40
2018-03-16T05:25:36.555Z,0.40
2018-03-16T05:27:04.736Z,0.40
2018-03-16T05:28:30.851Z,0.39
2018-03-16T05:29:59.107Z,0.42
2018-03-16T05:31:26.116Z,0.43
2018-03-16T05:32:53.262Z,0.41
2018-03-16T05:34:19.481Z,0.39
2018-03-16T05:35:47.549Z,0.38
2018-03-16T05:37:13.636Z,0.38
2018-03-16T05:38:41.704Z,0.40
2018-03-16T05:40:08.676Z,0.40
2018-03-16T05:41:34.855Z,0.39
2018-03-16T05:43:02.967Z,0.37
2018-03-16T05:44:29.171Z,0.38
2018-03-16T05:45:56.219Z,0.38
2018-03-16T05:47:24.298Z,0.38
2018-03-16T05:48:50.489Z,0.37
2018-03-16T05:50:18.643Z,0.36
2018-03-16T05:51:45.664Z,0.35
2018-03-16T05:53:12.744Z,0.37
2018-03-16T05:54:39.971Z,0.36
2018-03-16T05:56:05.912Z,0.37
2018-03-16T05:57:33.103Z,0.37
2018-03-16T05:59:00.187Z,0.38
2018-03-16T06:00:27.225Z,0.38
2018-03-16T06:01:55.428Z,0.37
2018-03-16T06:03:21.543Z,0.37
2018-03-16T06:04:48.694Z,0.36
2018-03-16T06:06:16.837Z,0.35
2018-03-16T06:07:43.929Z,0.36
2018-03-16T06:09:11.015Z,0.38
2018-03-16T06:10:36.970Z,0.39
2018-03-16T06:12:05.250Z,0.37
2018-03-16T06:13:32.376Z,0.39
2018-03-16T06:14:58.597Z,0.40
2018-03-16T06:16:26.920Z,0.39
2018-03-16T06:17:54.002Z,0.36
2018-03-16T06:19:21.229Z,0.37
2018-03-16T06:20:47.298Z,0.36
2018-03-16T06:22:15.462Z,0.34
2018-03-16T06:23:42.515Z,0.34
2018-03-16T06:25:09.643Z,0.35
2018-03-16T06:26:35.609Z,0.35
2018-03-16T06:28:03.890Z,0.36
2018-03-16T06:29:29.895Z,0.32
2018-03-16T06:30:57.930Z,0.34
2018-03-16T06:32:24.177Z,0.36
2018-03-16T06:33:51.176Z,0.40
2018-03-16T06:35:18.501Z,0.40
2018-03-16T06:36:45.559Z,0.41
2018-03-16T06:38:13.585Z,0.40
2018-03-16T06:39:40.836Z,0.37
2018-03-16T06:41:06.739Z,0.36
2018-03-16T06:42:34.810Z,0.38
2018-03-16T06:44:00.813Z,0.41
2018-03-16T06:45:28.952Z,0.44
2018-03-16T06:46:55.177Z,0.43
2018-03-16T06:48:22.209Z,0.48
2018-03-16T06:49:49.318Z,0.46
2018-03-16T06:51:17.466Z,0.47
2018-03-16T06:52:44.672Z,0.45
2018-03-16T06:54:10.649Z,0.43
2018-03-16T06:55:37.611Z,0.43
2018-03-16T06:57:04.853Z,0.43
2018-03-16T06:58:32.969Z,0.43
2018-03-16T07:00:00.209Z,0.48
2018-03-16T07:01:26.227Z,0.48
2018-03-16T07:02:53.152Z,0.51
2018-03-16T07:04:21.212Z,0.52
2018-03-16T07:05:47.424Z,0.51
2018-03-16T07:07:14.504Z,0.48
2018-03-16T07:08:42.680Z,0.50
2018-03-16T07:10:08.669Z,0.53
2018-03-16T07:11:36.721Z,0.57
2018-03-16T07:13:02.719Z,0.51
2018-03-16T07:14:30.768Z,0.52
2018-03-16T07:15:57.963Z,0.52
2018-03-16T07:17:24.170Z,0.56
2018-03-16T07:18:52.351Z,0.51
2018-03-16T07:20:18.570Z,0.55
2018-03-16T07:21:46.482Z,0.55
2018-03-16T07:23:13.504Z,0.58
2018-03-16T07:24:40.583Z,0.60
2018-03-16T07:26:06.560Z,0.62
2018-03-16T07:27:33.673Z,0.64
2018-03-16T07:29:01.907Z,0.65
2018-03-16T07:30:29.099Z,0.68
2018-03-16T07:31:55.251Z,0.71
2018-03-16T07:33:22.403Z,0.70
2018-03-16T07:34:49.562Z,0.73
2018-03-16T07:36:16.844Z,0.75
2018-03-16T07:37:43.778Z,0.75
2018-03-16T07:39:10.868Z,0.76
2018-03-16T07:40:38.795Z,0.78
2018-03-16T07:42:05.990Z,0.75
2018-03-16T07:43:33.096Z,0.75
2018-03-16T07:45:00.097Z,0.75
2018-03-16T07:46:27.202Z,0.69
2018-03-16T07:47:54.054Z,0.74
2018-03-16T07:49:21.140Z,0.74
2018-03-16T07:50:47.251Z,0.73
2018-03-16T07:52:15.202Z,0.73
2018-03-16T07:53:41.188Z,0.75
2018-03-16T07:55:08.309Z,0.77
2018-03-16T07:56:36.358Z,0.80
2018-03-16T07:58:02.505Z,0.83
2018-03-16T07:59:30.589Z,0.87
2018-03-16T08:00:57.873Z,0.85
2018-03-16T08:02:24.995Z,0.90
2018-03-16T08:03:51.303Z,0.89
2018-03-16T08:05:18.367Z,0.92
2018-03-16T08:06:46.281Z,0.97
2018-03-16T08:08:12.388Z,1.03
2018-03-16T08:09:40.507Z,1.02
2018-03-16T08:11:07.780Z,1.01
2018-03-16T08:12:34.900Z,1.01
2018-03-16T08:14:01.026Z,1.00
2018-03-16T08:15:28.310Z,0.99
2018-03-16T08:16:56.480Z,1.04
2018-03-16T08:18:23.723Z,1.10
2018-03-16T08:19:49.899Z,1.10
2018-03-16T08:21:17.088Z,1.10
2018-03-16T08:22:44.045Z,1.08
2018-03-16T08:24:12.171Z,1.10
2018-03-16T08:25:38.222Z,1.01
2018-03-16T08:27:06.560Z,1.02
2018-03-16T08:28:33.253Z,1.04
2018-03-16T08:30:00.360Z,1.03
2018-03-16T08:31:27.633Z,1.01
2018-03-16T08:32:54.806Z,1.07
2018-03-16T08:34:22.103Z,1.12
2018-03-16T08:35:49.284Z,1.11
2018-03-16T08:37:15.081Z,1.16
2018-03-16T08:38:43.241Z,1.19
2018-03-16T08:40:10.154Z,1.20
2018-03-16T08:41:36.197Z,1.21
2018-03-16T08:43:03.369Z,1.17
2018-03-16T08:44:31.535Z,1.16
2018-03-16T08:45:58.511Z,1.15
2018-03-16T08:47:25.596Z,1.21
2018-03-16T08:48:51.675Z,1.18
2018-03-16T08:50:19.816Z,1.14
2018-03-16T08:51:46.890Z,1.21
2018-03-16T08:53:14.112Z,1.25
2018-03-16T08:54:41.175Z,1.30
2018-03-16T08:56:07.799Z,1.29
2018-03-16T08:57:34.051Z,1.26
2018-03-16T08:59:01.200Z,1.22
2018-03-16T09:00:29.055Z,1.22
2018-03-16T09:01:55.087Z,1.16
2018-03-16T09:03:22.203Z,1.12
2018-03-16T09:04:50.318Z,1.11
2018-03-16T09:06:16.412Z,1.12
2018-03-16T09:07:44.538Z,1.11
2018-03-16T09:09:10.554Z,1.14
2018-03-16T09:10:37.667Z,1.15
2018-03-16T09:12:05.679Z,1.17
2018-03-16T09:13:32.936Z,1.20
2018-03-16T09:14:59.055Z,1.21
2018-03-16T09:16:27.183Z,1.22
2018-03-16T09:17:53.285Z,1.22
2018-03-16T09:19:20.556Z,1.21
2018-03-16T09:20:48.577Z,1.23
2018-03-16T09:22:15.725Z,1.24
2018-03-16T09:23:43.557Z,1.22
2018-03-16T09:25:08.752Z,1.25
2018-03-16T09:26:35.717Z,1.20
2018-03-16T09:28:03.913Z,1.16
2018-03-16T09:29:30.919Z,1.11
2018-03-16T09:30:58.103Z,1.12
2018-03-16T09:32:25.238Z,1.12
2018-03-16T09:33:51.341Z,1.08
2018-03-16T09:35:19.386Z,1.02
2018-03-16T09:36:45.525Z,0.99
2018-03-16T09:38:12.642Z,0.99
2018-03-16T09:39:39.844Z,0.94
2018-03-16T09:41:08.050Z,0.91
2018-03-16T09:42:34.089Z,0.95
2018-03-16T09:44:02.141Z,0.99
2018-03-16T09:45:28.172Z,0.96
2018-03-16T09:46:56.424Z,0.91
2018-03-16T09:48:23.619Z,0.86
2018-03-16T09:49:49.790Z,0.79
2018-03-16T09:51:17.934Z,0.77
2018-03-16T09:52:45.152Z,0.78
2018-03-16T09:54:11.262Z,0.76
2018-03-16T09:55:38.309Z,0.76
2018-03-16T09:57:05.340Z,0.76
2018-03-16T09:58:33.378Z,0.78
2018-03-16T10:00:00.486Z,0.81
2018-03-16T10:01:26.636Z,0.86
2018-03-16T10:02:54.623Z,0.86
2018-03-16T10:04:21.592Z,0.86
2018-03-16T10:05:47.793Z,0.85
2018-03-16T10:07:15.982Z,0.82
2018-03-16T10:08:43.096Z,0.78
2018-03-16T10:10:10.211Z,0.75
2018-03-16T10:11:37.306Z,0.77
2018-03-16T10:13:04.264Z,0.78
2018-03-16T10:14:31.499Z,0.77
2018-03-16T10:15:58.689Z,0.77
2018-03-16T10:17:24.686Z,0.65
2018-03-16T10:18:51.792Z,0.71
2018-03-16T10:20:18.762Z,0.72
2018-03-16T10:21:46.877Z,0.71
2018-03-16T10:23:13.994Z,0.60
2018-03-16T10:24:40.191Z,0.69
2018-03-16T10:26:08.369Z,0.73
2018-03-16T10:27:35.499Z,0.77
2018-03-16T10:29:01.563Z,0.77
2018-03-16T10:30:28.747Z,0.78
2018-03-16T10:31:55.652Z,0.85
2018-03-16T10:33:22.850Z,0.83
2018-03-16T10:34:51.061Z,0.88
2018-03-16T10:36:18.243Z,0.83
2018-03-16T10:37:45.433Z,0.78
2018-03-16T10:39:12.654Z,0.81
2018-03-16T10:40:38.713Z,0.80
2018-03-16T10:42:06.798Z,0.81
2018-03-16T10:43:33.808Z,0.81
2018-03-16T10:44:59.749Z,0.85
2018-03-16T10:46:26.934Z,0.78
2018-03-16T10:47:54.147Z,0.72
2018-03-16T10:49:22.375Z,0.73
2018-03-16T10:50:49.204Z,0.83
2018-03-16T10:52:16.349Z,0.93
2018-03-16T10:53:42.354Z,1.01
2018-03-16T10:55:10.495Z,0.99
2018-03-16T10:56:36.435Z,1.00
2018-03-16T10:58:04.454Z,0.96
2018-03-16T10:59:31.786Z,0.92
2018-03-16T11:00:58.636Z,0.88
2018-03-16T11:02:24.817Z,0.80
2018-03-16T11:03:52.018Z,0.76
2018-03-16T11:05:20.280Z,0.71
2018-03-16T11:06:47.302Z,0.71
2018-03-16T11:08:13.446Z,0.68
2018-03-16T11:09:41.318Z,0.65
2018-03-16T11:11:07.294Z,0.60
2018-03-16T11:12:35.593Z,0.58
2018-03-16T11:14:01.577Z,0.60
2018-03-16T11:15:28.727Z,0.60
2018-03-16T11:16:56.947Z,0.60
2018-03-16T11:18:24.116Z,0.57
2018-03-16T11:19:51.253Z,0.58
2018-03-16T11:21:17.484Z,0.61
2018-03-16T11:22:44.632Z,0.65
2018-03-16T11:24:12.778Z,0.73
2018-03-16T11:25:38.815Z,0.82
2018-03-16T11:27:05.793Z,0.85
2018-03-16T11:28:32.850Z,0.89
2018-03-16T11:30:00.994Z,0.91
2018-03-16T11:31:27.917Z,0.95
2018-03-16T11:32:55.058Z,0.91
2018-03-16T11:34:21.182Z,0.85
2018-03-16T11:35:48.406Z,0.77
2018-03-16T11:37:16.392Z,0.75
2018-03-16T11:38:43.398Z,0.75
2018-03-16T11:40:10.475Z,0.77
2018-03-16T11:41:36.394Z,0.85
2018-03-16T11:43:03.401Z,0.96
2018-03-16T11:44:30.602Z,1.05
2018-03-16T11:45:58.676Z,1.09
2018-03-16T11:47:24.770Z,1.18
2018-03-16T11:48:53.111Z,1.28
2018-03-16T11:50:19.398Z,1.31
2018-03-16T11:51:46.434Z,1.43
2018-03-16T11:53:14.699Z,1.56
2018-03-16T11:54:41.773Z,1.57
2018-03-16T11:56:08.879Z,1.45
2018-03-16T11:57:35.082Z,1.37
2018-03-16T11:59:03.133Z,1.32
2018-03-16T12:00:29.185Z,1.30
2018-03-16T12:01:57.354Z,1.21
2018-03-16T12:03:23.620Z,1.17
2018-03-16T12:04:51.713Z,1.13
2018-03-16T12:06:18.715Z,1.08
2018-03-16T12:07:45.663Z,1.01
2018-03-16T12:09:12.922Z,0.99
2018-03-16T12:10:38.940Z,1.00
2018-03-16T12:12:06.024Z,1.00
2018-03-16T12:13:34.158Z,0.97
2018-03-16T12:15:00.281Z,0.91
2018-03-16T12:16:28.498Z,0.90
2018-03-16T12:17:54.675Z,0.84
2018-03-16T12:19:21.877Z,0.84
2018-03-16T12:20:50.009Z,0.79
2018-03-16T12:22:16.159Z,0.85
2018-03-16T12:23:44.263Z,0.85
2018-03-16T12:25:11.236Z,0.84
2018-03-16T12:26:37.296Z,0.85
2018-03-16T12:28:05.547Z,0.91
2018-03-16T12:29:31.782Z,0.92
2018-03-16T12:30:58.952Z,0.89
2018-03-16T12:32:27.116Z,0.87
2018-03-16T12:33:54.087Z,0.85
2018-03-16T12:35:21.212Z,0.81
2018-03-16T12:36:47.494Z,0.82
2018-03-16T12:38:15.535Z,0.87
2018-03-16T12:39:41.581Z,0.84
2018-03-16T12:41:09.642Z,0.80
2018-03-16T12:42:35.616Z,0.83
2018-03-16T12:44:02.781Z,0.84
2018-03-16T12:45:30.768Z,0.86
2018-03-16T12:46:56.926Z,0.90
2018-03-16T12:48:25.024Z,0.86
2018-03-16T12:49:51.065Z,0.81
2018-03-16T12:51:19.345Z,0.84
2018-03-16T12:52:45.433Z,0.92
2018-03-16T12:54:13.568Z,0.94
2018-03-16T12:55:39.558Z,0.94
2018-03-16T12:57:06.420Z,0.92
2018-03-16T12:58:34.660Z,0.86
2018-03-16T13:00:00.852Z,0.80
2018-03-16T13:01:28.072Z,0.85
2018-03-16T13:02:55.280Z,0.86
2018-03-16T13:04:23.533Z,0.92
2018-03-16T13:05:50.625Z,1.06
2018-03-16T13:07:17.717Z,1.12
2018-03-16T13:08:44.946Z,1.13
2018-03-16T13:10:11.113Z,1.09
2018-03-16T13:11:39.310Z,1.10
2018-03-16T13:13:06.278Z,1.08
2018-03-16T13:14:32.313Z,1.05
2018-03-16T13:15:59.483Z,1.00
2018-03-16T13:17:26.448Z,0.92
2018-03-16T13:18:53.429Z,0.90
2018-03-16T13:20:20.610Z,0.87
2018-03-16T13:21:48.882Z,0.82
2018-03-16T13:23:15.095Z,0.78
2018-03-16T13:24:42.204Z,0.78
2018-03-16T13:26:10.017Z,0.79
2018-03-16T13:27:37.161Z,0.81
2018-03-16T13:29:04.233Z,0.80
2018-03-16T13:30:30.347Z,0.77
2018-03-16T13:31:57.399Z,0.80
2018-03-16T13:33:24.410Z,0.88
2018-03-16T13:34:51.472Z,0.89
2018-03-16T13:36:18.505Z,0.93
2018-03-16T13:37:45.742Z,0.99
2018-03-16T13:39:13.022Z,1.01
2018-03-16T13:40:39.974Z,0.99
2018-03-16T13:42:12.966Z,0.91
2018-03-16T13:43:34.099Z,0.87
2018-03-16T13:45:01.244Z,0.86
2018-03-16T13:46:28.324Z,0.88
2018-03-16T13:47:56.431Z,0.90
2018-03-16T13:49:23.631Z,0.89
2018-03-16T13:50:49.804Z,0.84
2018-03-16T13:52:17.042Z,0.82
2018-03-16T13:53:45.067Z,0.85
2018-03-16T13:55:12.229Z,0.79
2018-03-16T13:56:39.216Z,0.69
2018-03-16T13:58:06.473Z,0.65
2018-03-16T13:59:33.623Z,0.66
2018-03-16T14:00:59.609Z,0.68
2018-03-16T14:02:27.732Z,0.67
2018-03-16T14:03:54.885Z,0.64
2018-03-16T14:05:21.210Z,0.60
2018-03-16T14:06:48.255Z,0.57
2018-03-16T14:08:16.330Z,0.54
2018-03-16T14:09:43.312Z,0.56
2018-03-16T14:11:10.334Z,0.58
2018-03-16T14:12:36.172Z,0.65
2018-03-16T14:14:04.256Z,0.74
2018-03-16T14:15:31.356Z,0.74
2018-03-16T14:16:57.369Z,0.72
2018-03-16T14:18:24.445Z,0.68
2018-03-16T14:19:52.703Z,0.65
2018-03-16T14:21:19.779Z,0.54
2018-03-16T14:22:45.940Z,0.56
2018-03-16T14:24:14.140Z,0.48
2018-03-16T14:25:40.282Z,0.41
2018-03-16T14:27:07.300Z,0.38
2018-03-16T14:28:34.345Z,0.39
2018-03-16T14:30:02.489Z,0.37
2018-03-16T14:31:29.722Z,0.36
2018-03-16T14:32:55.752Z,0.36
2018-03-16T14:34:23.847Z,0.33
2018-03-16T14:35:49.762Z,0.31
2018-03-16T14:37:17.829Z,0.33
2018-03-16T14:38:44.927Z,0.31
2018-03-16T14:40:10.794Z,0.24
2018-03-16T14:41:38.872Z,0.18
2018-03-16T14:43:06.048Z,0.17
2018-03-16T14:44:31.856Z,0.20
2018-03-16T14:45:58.759Z,0.27
2018-03-16T14:47:25.633Z,0.38
2018-03-16T14:48:53.792Z,0.44
2018-03-16T14:50:20.918Z,0.49
2018-03-16T14:51:47.052Z,0.53
2018-03-16T14:53:14.175Z,0.59
2018-03-16T14:54:42.241Z,0.60
2018-03-16T14:56:08.297Z,0.56
2018-03-16T14:57:36.610Z,0.55
2018-03-16T14:59:03.674Z,0.50
2018-03-16T15:00:29.764Z,0.38
2018-03-16T15:01:57.896Z,0.29
2018-03-16T15:03:25.282Z,0.23
2018-03-16T15:04:51.373Z,0.20
2018-03-16T15:06:18.418Z,0.25
2018-03-16T15:07:45.653Z,0.26
2018-03-16T15:09:12.639Z,0.31
2018-03-16T15:10:40.800Z,0.35
2018-03-16T15:12:07.021Z,0.35
2018-03-16T15:13:35.115Z,0.32
2018-03-16T15:15:01.373Z,0.35
2018-03-16T15:16:29.491Z,0.30
2018-03-16T15:17:56.578Z,0.22
2018-03-16T15:19:23.783Z,0.19
2018-03-16T15:20:49.637Z,0.15
2018-03-16T15:22:16.561Z,0.13
2018-03-16T15:23:43.769Z,0.12
2018-03-16T15:25:10.924Z,0.07
2018-03-16T15:26:38.202Z,-0.01
2018-03-16T15:28:06.144Z,-0.05
2018-03-16T15:29:33.218Z,-0.10
2018-03-16T15:30:59.487Z,-0.16
2018-03-16T15:32:26.299Z,-0.22
2018-03-16T15:33:53.318Z,-0.26
2018-03-16T15:35:21.444Z,-0.29
2018-03-16T15:36:48.233Z,-0.27
2018-03-16T15:38:15.450Z,-0.23
2018-03-16T15:39:42.334Z,-0.18
2018-03-16T15:41:09.190Z,-0.12
2018-03-16T15:42:35.404Z,-0.09
2018-03-16T15:44:03.331Z,-0.10
2018-03-16T15:45:30.388Z,-0.14
2018-03-16T15:46:56.716Z,-0.16
2018-03-16T15:48:24.570Z,-0.18
2018-03-16T15:49:51.596Z,-0.25
2018-03-16T15:51:17.627Z,-0.28
2018-03-16T15:52:45.874Z,-0.28
2018-03-16T15:54:11.620Z,-0.30
2018-03-16T15:55:38.594Z,-0.33
2018-03-16T15:57:06.530Z,-0.32
2018-03-16T15:58:33.792Z,-0.35
2018-03-16T16:00:00.748Z,-0.39
2018-03-16T16:01:26.451Z,-0.43
2018-03-16T16:02:54.647Z,-0.46
2018-03-16T16:04:20.736Z,-0.49
2018-03-16T16:05:47.618Z,-0.50
2018-03-16T16:07:15.799Z,-0.50
2018-03-16T16:08:42.886Z,-0.50
2018-03-16T16:10:09.792Z,-0.50
2018-03-16T16:11:36.514Z,-0.55
2018-03-16T16:13:03.585Z,-0.58
2018-03-16T16:14:30.735Z,-0.66
2018-03-16T16:15:56.560Z,-0.69
2018-03-16T16:17:24.595Z,-0.73
2018-03-16T16:18:51.612Z,-0.73
2018-03-16T16:20:18.425Z,-0.71
2018-03-16T16:21:45.528Z,-0.72
2018-03-16T16:23:17.748Z,-0.72
2018-03-16T16:24:39.578Z,-0.69
2018-03-16T16:26:06.570Z,-0.68
2018-03-16T16:27:33.777Z,-0.69
2018-03-16T16:28:59.870Z,-0.71
2018-03-16T16:30:27.877Z,-0.72
2018-03-16T16:31:55.004Z,-0.77
2018-03-16T16:33:20.944Z,-0.77
2018-03-16T16:34:49.028Z,-0.80
2018-03-16T16:36:15.081Z,-0.79
2018-03-16T16:37:41.869Z,-0.80
2018-03-16T16:39:09.965Z,-0.80
2018-03-16T16:40:36.746Z,-0.76
2018-03-16T16:42:02.906Z,-0.76
2018-03-16T16:43:29.938Z,-0.85
2018-03-16T16:44:57.817Z,-0.89
2018-03-16T16:46:24.555Z,-0.94
2018-03-16T16:47:51.250Z,-0.99
2018-03-16T16:49:17.273Z,-0.98
2018-03-16T16:50:45.262Z,-0.99
2018-03-16T16:52:12.298Z,-0.98
2018-03-16T16:53:39.192Z,-1.00
2018-03-16T16:55:05.044Z,-1.01
2018-03-16T16:56:33.074Z,-1.02
2018-03-16T16:58:00.103Z,-1.05
2018-03-16T16:59:27.156Z,-1.06
2018-03-16T17:00:54.108Z,-1.07
2018-03-16T17:02:21.075Z,-1.08
2018-03-16T17:03:47.107Z,-1.08
2018-03-16T17:05:14.033Z,-1.07
2018-03-16T17:06:42.029Z,-1.11
2018-03-16T17:08:07.857Z,-1.12
2018-03-16T17:09:35.999Z,-1.11
2018-03-16T17:11:02.775Z,-1.10
2018-03-16T17:12:29.966Z,-1.11
2018-03-16T17:13:57.063Z,-1.11
2018-03-16T17:15:23.061Z,-1.11
2018-03-16T17:16:51.106Z,-1.12
2018-03-16T17:18:17.054Z,-1.15
2018-03-16T17:19:45.198Z,-1.17
2018-03-16T17:21:12.345Z,-1.21
2018-03-16T17:22:39.390Z,-1.23
2018-03-16T17:24:05.194Z,-1.24
2018-03-16T17:25:32.241Z,-1.30
2018-03-16T17:26:59.297Z,-1.34
2018-03-16T17:28:26.321Z,-1.36
2018-03-16T17:29:54.335Z,-1.34
2018-03-16T17:31:21.416Z,-1.33
2018-03-16T17:32:48.463Z,-1.31
2018-03-16T17:34:15.550Z,-1.30
2018-03-16T17:35:41.610Z,-1.29
2018-03-16T17:37:09.710Z,-1.30
2018-03-16T17:38:35.638Z,-1.30
2018-03-16T17:40:02.590Z,-1.27
2018-03-16T17:41:29.702Z,-1.29
2018-03-16T17:42:57.682Z,-1.27
2018-03-16T17:44:24.564Z,-1.28
2018-03-16T17:45:51.617Z,-1.28
2018-03-16T17:47:17.556Z,-1.26
2018-03-16T17:48:45.471Z,-1.26
2018-03-16T17:50:12.398Z,-1.27
2018-03-16T17:51:39.370Z,-1.28
2018-03-16T17:53:06.413Z,-1.31
2018-03-16T17:54:32.315Z,-1.33
2018-03-16T17:56:00.369Z,-1.33
2018-03-16T17:57:27.228Z,-1.34
2018-03-16T17:58:54.308Z,-1.36
2018-03-16T18:00:20.405Z,-1.40
2018-03-16T18:01:47.287Z,-1.40
2018-03-16T18:03:15.361Z,-1.40
2018-03-16T18:04:42.202Z,-1.39
2018-03-16T18:06:09.082Z,-1.38
2018-03-16T18:07:34.739Z,-1.42
2018-03-16T18:09:02.767Z,-1.41
2018-03-16T18:10:28.681Z,-1.41
2018-03-16T18:11:56.872Z,-1.40
2018-03-16T18:13:22.943Z,-1.39
2018-03-16T18:14:50.008Z,-1.38
2018-03-16T18:16:17.151Z,-1.40
2018-03-16T18:17:44.124Z,-1.40
2018-03-16T18:19:12.117Z,-1.40
2018-03-16T18:20:38.204Z,-1.41
2018-03-16T18:22:06.240Z,-1.41
2018-03-16T18:23:33.122Z,-1.44
2018-03-16T18:24:59.220Z,-1.45
2018-03-16T18:26:27.350Z,-1.47
2018-03-16T18:27:53.281Z,-1.48
2018-03-16T18:29:21.356Z,-1.47
2018-03-16T18:30:47.431Z,-1.46
2018-03-16T18:32:14.403Z,-1.45
2018-03-16T18:33:42.560Z,-1.47
2018-03-16T18:35:09.472Z,-1.47
2018-03-16T18:36:36.293Z,-1.47
2018-03-16T18:38:03.445Z,-1.45
2018-03-16T18:39:29.471Z,-1.40
2018-03-16T18:40:56.688Z,-1.40
2018-03-16T18:42:23.584Z,-1.41
2018-03-16T18:43:51.631Z,-1.40
2018-03-16T18:45:18.575Z,-1.38
2018-03-16T18:46:44.640Z,-1.38
2018-03-16T18:48:12.854Z,-1.41
2018-03-16T18:49:38.813Z,-1.42
2018-03-16T18:51:06.668Z,-1.44
2018-03-16T18:52:32.513Z,-1.45
2018-03-16T18:54:00.659Z,-1.44
2018-03-16T18:55:27.836Z,-1.42
2018-03-16T18:56:54.824Z,-1.43
2018-03-16T18:58:21.868Z,-1.43
2018-03-16T18:59:47.786Z,-1.41
2018-03-16T19:01:15.560Z,-1.40
2018-03-16T19:02:42.485Z,-1.41
2018-03-16T19:04:08.481Z,-1.41
2018-03-16T19:05:36.445Z,-1.41
2018-03-16T19:07:03.325Z,-1.40
2018-03-16T19:08:30.263Z,-1.37
2018-03-16T19:09:57.267Z,-1.39
2018-03-16T19:11:23.281Z,-1.41